createdAt,value
2019-01-16T00:02:42.674Z,14.03
2019-01-16T00:05:29.428Z,11.90
2019-01-16T00:08:19.143Z,13.13
2019-01-16T00:10:56.292Z,11.27
2019-01-16T00:13:39.727Z,12.50
2019-01-16T00:16:20.512Z,9.77
2019-01-16T00:19:11.311Z,8.53
2019-01-16T00:22:00.782Z,12.13
2019-01-16T00:24:47.414Z,11.60
2019-01-16T00:27:33.742Z,10.87
2019-01-16T00:30:18.611Z,9.13
2019-01-16T00:32:58.000Z,9.47
2019-01-16T00:35:48.630Z,6.90
2019-01-16T00:38:41.498Z,6.97
2019-01-16T00:41:35.370Z,8.60
2019-01-16T00:44:14.468Z,8.37
2019-01-16T00:47:04.518Z,6.40
2019-01-16T00:49:56.060Z,7.53
2019-01-16T00:52:42.785Z,5.23
2019-01-16T00:55:39.506Z,7.60
2019-01-16T00:58:27.603Z,8.37
2019-01-16T01:01:25.059Z,6.07
2019-01-16T01:04:07.198Z,7.40
2019-01-16T01:06:50.154Z,4.40
2019-01-16T01:09:29.229Z,6.90
2019-01-16T01:12:11.902Z,3.83
2019-01-16T01:14:58.380Z,6.40
2019-01-16T01:17:36.673Z,4.70
2019-01-16T01:20:24.032Z,9.10
2019-01-16T01:23:02.495Z,6.10
2019-01-16T01:25:51.660Z,5.93
2019-01-16T01:28:54.871Z,9.40
2019-01-16T01:31:48.942Z,6.20
2019-01-16T01:34:26.179Z,6.60
2019-01-16T01:37:12.610Z,7.23
2019-01-16T01:40:07.375Z,8.00
2019-01-16T01:42:51.904Z,6.23
2019-01-16T01:45:42.327Z,6.20
2019-01-16T01:48:28.971Z,6.70
2019-01-16T01:51:16.670Z,6.83
2019-01-16T01:54:04.783Z,11.17
2019-01-16T01:56:51.200Z,7.37
2019-01-16T01:59:37.838Z,6.20
2019-01-16T02:02:24.234Z,5.50
2019-01-16T02:05:13.933Z,6.93
2019-01-16T02:07:51.288Z,5.80
2019-01-16T02:10:38.235Z,8.70
2019-01-16T02:13:29.167Z,8.50
2019-01-16T02:16:26.478Z,6.00
2019-01-16T02:19:23.371Z,7.30
2019-01-16T02:22:05.894Z,7.40
2019-01-16T02:24:46.165Z,7.50
2019-01-16T02:27:29.839Z,6.60
2019-01-16T02:30:23.445Z,9.53
2019-01-16T02:33:20.154Z,11.43
2019-01-16T02:36:11.270Z,15.77
2019-01-16T02:39:07.728Z,7.60
2019-01-16T02:41:49.002Z,8.60
2019-01-16T02:44:25.652Z,8.90
2019-01-16T02:47:12.128Z,8.97
2019-01-16T02:50:06.109Z,10.57
2019-01-16T02:52:44.257Z,11.53
2019-01-16T02:55:48.462Z,8.23
2019-01-16T02:58:39.230Z,10.40
2019-01-16T03:01:16.287Z,10.70
2019-01-16T03:04:01.251Z,10.13
2019-01-16T03:06:52.056Z,18.70
2019-01-16T03:09:37.426Z,11.03
2019-01-16T03:12:25.150Z,13.73
2019-01-16T03:15:07.813Z,14.23
2019-01-16T03:17:54.401Z,16.20
2019-01-16T03:20:54.571Z,14.73
2019-01-16T03:23:44.096Z,10.27
2019-01-16T03:26:43.600Z,10.00
2019-01-16T03:29:22.938Z,11.13
2019-01-16T03:32:23.363Z,12.10
2019-01-16T03:35:00.572Z,12.03
2019-01-16T03:37:51.753Z,15.53
2019-01-16T03:40:52.292Z,14.03
2019-01-16T03:43:55.570Z,12.90
2019-01-16T03:46:35.903Z,17.70
2019-01-16T03:49:26.979Z,15.23
2019-01-16T03:52:12.115Z,16.30
2019-01-16T03:54:53.818Z,19.90
2019-01-16T03:58:00.289Z,18.83
2019-01-16T04:00:48.190Z,20.07
2019-01-16T04:03:44.866Z,16.30
2019-01-16T04:06:35.701Z,18.70
2019-01-16T04:09:26.598Z,23.27
2019-01-16T04:12:02.234Z,24.47
2019-01-16T04:15:10.774Z,22.00
2019-01-16T04:18:01.236Z,21.50
2019-01-16T04:20:37.666Z,24.53
2019-01-16T04:23:24.435Z,20.33
2019-01-16T04:26:15.851Z,24.73
2019-01-16T04:29:02.817Z,26.60
2019-01-16T04:31:56.436Z,21.93
2019-01-16T04:34:47.616Z,24.13
2019-01-16T04:37:29.812Z,22.73
2019-01-16T04:40:15.283Z,25.33
2019-01-16T04:43:18.090Z,24.90
2019-01-16T04:46:02.144Z,22.93
2019-01-16T04:48:46.610Z,20.53
2019-01-16T04:51:43.543Z,24.53
2019-01-16T04:54:36.271Z,22.00
2019-01-16T04:57:23.028Z,25.33
2019-01-16T05:00:08.302Z,23.67
2019-01-16T05:02:54.939Z,22.60
2019-01-16T05:05:45.586Z,19.23
2019-01-16T05:08:32.221Z,29.67
2019-01-16T05:11:25.992Z,23.80
2019-01-16T05:14:14.182Z,25.67
2019-01-16T05:17:11.573Z,23.37
2019-01-16T05:19:58.125Z,19.23
2019-01-16T05:22:39.011Z,20.47
2019-01-16T05:25:15.584Z,17.83
2019-01-16T05:28:00.542Z,19.00
2019-01-16T05:30:51.311Z,16.73
2019-01-16T05:33:36.889Z,21.03
2019-01-16T05:36:22.304Z,21.47
2019-01-16T05:39:17.223Z,18.33
2019-01-16T05:42:06.506Z,16.80
2019-01-16T05:44:48.067Z,17.90
2019-01-16T05:47:39.320Z,14.10
2019-01-16T05:50:31.055Z,15.80
2019-01-16T05:53:27.003Z,12.70
2019-01-16T05:56:15.019Z,13.33
2019-01-16T05:59:02.316Z,15.47
2019-01-16T06:01:50.633Z,16.67
2019-01-16T06:04:37.411Z,14.77
2019-01-16T06:07:24.007Z,12.40
2019-01-16T06:10:10.723Z,13.87
2019-01-16T06:13:08.027Z,14.10
2019-01-16T06:15:44.453Z,11.87
2019-01-16T06:18:32.584Z,14.23
2019-01-16T06:21:13.042Z,14.93
2019-01-16T06:24:00.780Z,12.60
2019-01-16T06:26:38.511Z,15.70
2019-01-16T06:29:25.574Z,18.23
2019-01-16T06:32:14.629Z,15.93
2019-01-16T06:35:01.483Z,28.27
2019-01-16T06:37:55.453Z,20.20
2019-01-16T06:40:34.602Z,19.27
2019-01-16T06:43:15.119Z,15.63
2019-01-16T06:45:51.711Z,18.80
2019-01-16T06:48:43.393Z,20.60
2019-01-16T06:51:30.114Z,19.93
2019-01-16T06:54:05.367Z,17.67
2019-01-16T06:56:51.768Z,16.80
2019-01-16T06:59:39.396Z,19.07
2019-01-16T07:02:28.079Z,20.33
2019-01-16T07:05:16.044Z,21.47
2019-01-16T07:08:06.768Z,19.63
2019-01-16T07:10:57.882Z,18.50
2019-01-16T07:13:44.593Z,20.80
2019-01-16T07:16:32.703Z,22.87
2019-01-16T07:19:19.039Z,17.13
2019-01-16T07:22:25.854Z,23.07
2019-01-16T07:25:18.702Z,22.30
2019-01-16T07:28:07.874Z,28.13
2019-01-16T07:30:56.595Z,19.90
2019-01-16T07:33:36.176Z,19.40
2019-01-16T07:36:33.119Z,17.13
2019-01-16T07:39:30.640Z,20.37
2019-01-16T07:42:17.586Z,23.47
2019-01-16T07:45:14.814Z,17.13
2019-01-16T07:48:01.306Z,19.03
2019-01-16T07:50:40.030Z,22.40
2019-01-16T07:53:31.203Z,24.03
2019-01-16T07:56:24.032Z,21.40
2019-01-16T07:59:10.624Z,16.40
2019-01-16T08:01:57.140Z,22.57
2019-01-16T08:04:39.384Z,17.00
2019-01-16T08:07:26.286Z,15.50
2019-01-16T08:10:12.180Z,16.60
2019-01-16T08:13:00.310Z,21.50
2019-01-16T08:15:57.312Z,15.63
2019-01-16T08:18:52.724Z,13.43
2019-01-16T08:21:43.852Z,21.93
2019-01-16T08:24:22.097Z,21.03
2019-01-16T08:27:07.635Z,18.23
2019-01-16T08:30:05.049Z,16.60
2019-01-16T08:32:45.880Z,17.87
2019-01-16T08:35:52.392Z,18.10
2019-01-16T08:38:52.463Z,14.80
2019-01-16T08:41:49.512Z,13.73
2019-01-16T08:44:38.157Z,12.43
2019-01-16T08:47:26.798Z,17.40
2019-01-16T08:50:16.981Z,13.23
2019-01-16T08:53:09.916Z,11.93
2019-01-16T08:56:00.619Z,14.77
2019-01-16T08:58:41.470Z,16.87
2019-01-16T09:01:32.572Z,11.67
2019-01-16T09:04:10.457Z,13.83
2019-01-16T09:07:04.626Z,14.93
2019-01-16T09:10:02.859Z,13.20
2019-01-16T09:12:49.481Z,13.77
2019-01-16T09:15:51.999Z,13.77
2019-01-16T09:18:28.303Z,13.10
2019-01-16T09:21:16.217Z,12.60
2019-01-16T09:23:54.973Z,18.73
2019-01-16T09:27:01.437Z,13.33
2019-01-16T09:30:07.748Z,11.00
2019-01-16T09:32:44.933Z,15.80
2019-01-16T09:35:21.575Z,9.90
2019-01-16T09:38:08.373Z,12.67
2019-01-16T09:40:47.076Z,12.83
2019-01-16T09:43:32.659Z,13.07
2019-01-16T09:46:19.135Z,11.77
2019-01-16T09:49:07.661Z,14.80
2019-01-16T09:51:55.672Z,15.37
2019-01-16T09:54:48.759Z,21.87
2019-01-16T09:57:36.204Z,13.13
2019-01-16T10:00:26.719Z,11.60
2019-01-16T10:03:19.074Z,13.00
2019-01-16T10:06:15.842Z,11.20
2019-01-16T10:08:53.729Z,14.40
2019-01-16T10:11:45.759Z,10.37
2019-01-16T10:14:32.288Z,11.27
2019-01-16T10:17:21.057Z,9.10
2019-01-16T10:20:14.858Z,10.20
2019-01-16T10:23:10.012Z,10.10
2019-01-16T10:26:10.102Z,10.80
2019-01-16T10:29:04.007Z,14.97
2019-01-16T10:31:51.227Z,13.37
2019-01-16T10:34:36.117Z,8.63
2019-01-16T10:37:37.179Z,10.70
2019-01-16T10:40:29.133Z,9.40
2019-01-16T10:43:23.200Z,11.20
2019-01-16T10:46:12.311Z,12.20
2019-01-16T10:49:13.309Z,8.00
2019-01-16T10:52:02.525Z,9.00
2019-01-16T10:54:41.276Z,8.50
2019-01-16T10:57:30.328Z,8.30
2019-01-16T11:00:22.880Z,8.73
2019-01-16T11:03:23.713Z,9.50
2019-01-16T11:06:11.760Z,7.23
2019-01-16T11:08:58.793Z,7.70
2019-01-16T11:11:45.569Z,11.03
2019-01-16T11:14:32.602Z,9.17
2019-01-16T11:17:14.660Z,7.03
2019-01-16T11:20:02.866Z,11.57
2019-01-16T11:22:54.078Z,9.83
2019-01-16T11:26:00.508Z,6.63
2019-01-16T11:28:55.122Z,11.10
2019-01-16T11:31:54.852Z,4.37
2019-01-16T11:34:34.200Z,6.00
2019-01-16T11:37:22.505Z,8.57
2019-01-16T11:40:13.648Z,6.47
2019-01-16T11:43:00.208Z,5.97
2019-01-16T11:45:36.793Z,7.17
2019-01-16T11:48:27.542Z,5.60
2019-01-16T11:51:19.122Z,5.70
2019-01-16T11:54:05.854Z,6.63
2019-01-16T11:56:58.189Z,5.43
2019-01-16T11:59:44.835Z,7.03
2019-01-16T12:02:39.405Z,9.27
2019-01-16T12:05:31.851Z,9.20
2019-01-16T12:08:25.882Z,7.57
2019-01-16T12:11:12.784Z,8.63
2019-01-16T12:13:53.364Z,7.77
2019-01-16T12:16:36.390Z,9.60
2019-01-16T12:19:12.914Z,6.43
2019-01-16T12:22:08.008Z,10.07
2019-01-16T12:24:54.906Z,12.13
2019-01-16T12:27:49.179Z,8.40
2019-01-16T12:30:38.723Z,5.70
2019-01-16T12:33:15.333Z,6.87
2019-01-16T12:36:03.243Z,8.57
2019-01-16T12:38:44.717Z,5.47
2019-01-16T12:41:47.650Z,4.63
2019-01-16T12:44:34.459Z,7.30
2019-01-16T12:47:36.545Z,5.50
2019-01-16T12:50:28.629Z,4.93
2019-01-16T12:53:22.563Z,5.27
2019-01-16T12:56:11.057Z,10.40
2019-01-16T12:58:59.103Z,4.07
2019-01-16T13:01:42.337Z,4.50
2019-01-16T13:04:39.406Z,4.60
2019-01-16T13:07:55.050Z,3.80
2019-01-16T13:10:38.256Z,6.70
2019-01-16T13:13:25.127Z,3.70
2019-01-16T13:16:11.698Z,4.57
2019-01-16T13:18:58.605Z,2.77
2019-01-16T13:21:50.617Z,2.60
2019-01-16T13:24:37.237Z,3.47
2019-01-16T13:27:25.531Z,4.23
2019-01-16T13:30:23.005Z,2.97
2019-01-16T13:33:25.844Z,3.03
2019-01-16T13:36:12.113Z,3.20
2019-01-16T13:38:48.697Z,4.13
2019-01-16T13:41:36.801Z,6.57
2019-01-16T13:44:15.032Z,6.20
2019-01-16T13:47:15.601Z,4.70
2019-01-16T13:50:02.213Z,2.73
2019-01-16T13:53:00.589Z,7.13
2019-01-16T13:55:47.161Z,2.83
2019-01-16T13:58:34.890Z,2.77
2019-01-16T14:01:25.555Z,4.10
2019-01-16T14:04:24.833Z,4.47
2019-01-16T14:07:13.348Z,2.63
2019-01-16T14:10:01.622Z,4.80
2019-01-16T14:12:43.962Z,3.23
2019-01-16T14:15:29.208Z,4.87
2019-01-16T14:18:29.105Z,5.53
2019-01-16T14:21:26.006Z,4.10
2019-01-16T14:24:12.599Z,4.30
2019-01-16T14:27:06.384Z,6.67
2019-01-16T14:29:42.948Z,4.73
2019-01-16T14:32:52.467Z,5.53
2019-01-16T14:35:55.235Z,6.20
2019-01-16T14:38:43.079Z,3.60
2019-01-16T14:41:37.150Z,3.80
2019-01-16T14:44:35.901Z,2.87
2019-01-16T14:47:23.254Z,5.67
2019-01-16T14:50:11.410Z,11.83
2019-01-16T14:53:13.866Z,2.43
2019-01-16T14:56:07.566Z,6.77
2019-01-16T14:59:10.003Z,4.20
2019-01-16T15:01:53.592Z,7.27
2019-01-16T15:04:34.599Z,3.80
2019-01-16T15:07:15.238Z,5.73
2019-01-16T15:10:01.977Z,5.63
2019-01-16T15:12:59.112Z,6.50
2019-01-16T15:15:48.982Z,5.90
2019-01-16T15:18:31.032Z,5.87
2019-01-16T15:21:11.443Z,3.87
2019-01-16T15:24:07.070Z,3.93
2019-01-16T15:26:53.631Z,5.73
2019-01-16T15:29:52.008Z,8.97
2019-01-16T15:32:46.284Z,3.53
2019-01-16T15:35:37.205Z,3.30
2019-01-16T15:38:27.770Z,11.07
2019-01-16T15:41:21.938Z,4.47
2019-01-16T15:44:21.720Z,5.40
2019-01-16T15:47:04.348Z,6.17
2019-01-16T15:49:48.384Z,6.10
2019-01-16T15:52:50.974Z,6.73
2019-01-16T15:55:47.911Z,10.03
2019-01-16T15:58:34.410Z,5.37
2019-01-16T16:01:24.440Z,3.53
2019-01-16T16:04:18.507Z,3.43
2019-01-16T16:07:05.315Z,3.97
2019-01-16T16:09:49.069Z,6.63
2019-01-16T16:12:35.431Z,6.27
2019-01-16T16:15:27.427Z,6.17
2019-01-16T16:18:18.509Z,4.87
2019-01-16T16:21:14.085Z,7.23
2019-01-16T16:23:54.411Z,4.50
2019-01-16T16:26:54.397Z,8.97
2019-01-16T16:29:40.851Z,3.90
2019-01-16T16:32:40.509Z,4.63
2019-01-16T16:35:21.242Z,6.80
2019-01-16T16:38:09.463Z,7.00
2019-01-16T16:41:06.781Z,4.53
2019-01-16T16:43:51.023Z,4.73
2019-01-16T16:46:37.412Z,7.07
2019-01-16T16:49:21.518Z,8.40
2019-01-16T16:52:26.102Z,5.73
2019-01-16T16:55:12.987Z,5.53
2019-01-16T16:57:52.793Z,3.87
2019-01-16T17:00:50.286Z,5.20
2019-01-16T17:03:38.729Z,4.87
2019-01-16T17:06:25.613Z,6.80
2019-01-16T17:09:13.479Z,3.60
2019-01-16T17:12:00.445Z,5.30
2019-01-16T17:14:54.482Z,6.17
2019-01-16T17:17:41.005Z,7.90
2019-01-16T17:20:27.935Z,3.50
2019-01-16T17:23:09.815Z,4.87
2019-01-16T17:25:57.863Z,9.40
2019-01-16T17:28:37.675Z,7.70
2019-01-16T17:31:28.597Z,9.87
2019-01-16T17:34:18.534Z,7.93
2019-01-16T17:37:12.552Z,5.60
2019-01-16T17:40:03.686Z,6.60
2019-01-16T17:42:42.423Z,6.33
2019-01-16T17:45:37.699Z,9.57
2019-01-16T17:48:22.335Z,10.63
2019-01-16T17:51:16.063Z,9.20
2019-01-16T17:54:02.800Z,6.10
2019-01-16T17:56:58.373Z,12.43
2019-01-16T17:59:52.457Z,5.17
2019-01-16T18:02:37.371Z,10.30
2019-01-16T18:05:24.142Z,10.50
2019-01-16T18:08:21.735Z,7.40
2019-01-16T18:11:11.425Z,8.50
2019-01-16T18:13:58.940Z,5.07
2019-01-16T18:16:51.508Z,9.50
2019-01-16T18:19:42.517Z,12.97
2019-01-16T18:22:21.145Z,12.90
2019-01-16T18:25:29.902Z,10.50
2019-01-16T18:28:16.408Z,13.00
2019-01-16T18:31:14.338Z,9.47
2019-01-16T18:33:59.456Z,13.97
2019-01-16T18:36:48.990Z,15.80
2019-01-16T18:39:31.649Z,20.07
2019-01-16T18:42:27.114Z,7.27
2019-01-16T18:45:18.016Z,12.27
2019-01-16T18:47:56.946Z,6.07
2019-01-16T18:50:47.944Z,6.00
2019-01-16T18:53:34.604Z,11.57
2019-01-16T18:56:17.362Z,6.10
2019-01-16T18:59:13.085Z,7.60
2019-01-16T19:02:01.255Z,6.23
2019-01-16T19:04:58.233Z,12.97
2019-01-16T19:07:54.357Z,10.00
2019-01-16T19:10:40.930Z,10.50
2019-01-16T19:13:27.463Z,8.27
2019-01-16T19:16:25.051Z,7.60
2019-01-16T19:19:04.270Z,16.30
2019-01-16T19:21:45.379Z,13.77
2019-01-16T19:24:36.294Z,14.60
2019-01-16T19:27:26.581Z,10.70
2019-01-16T19:30:27.064Z,9.27
2019-01-16T19:33:23.531Z,9.13
2019-01-16T19:36:17.960Z,11.43
2019-01-16T19:39:09.272Z,12.77
2019-01-16T19:42:10.128Z,12.83
2019-01-16T19:45:04.267Z,7.33
2019-01-16T19:48:01.679Z,8.73
2019-01-16T19:51:00.666Z,9.60
2019-01-16T19:53:50.479Z,8.70
2019-01-16T19:56:42.262Z,11.43
2019-01-16T19:59:33.203Z,7.63
2019-01-16T20:02:21.360Z,11.47
2019-01-16T20:05:09.197Z,7.00
2019-01-16T20:08:05.703Z,7.80
2019-01-16T20:10:53.952Z,9.23
2019-01-16T20:13:40.534Z,11.20
2019-01-16T20:16:29.498Z,14.80
2019-01-16T20:19:23.774Z,11.67
2019-01-16T20:22:10.620Z,8.97
2019-01-16T20:24:57.529Z,7.70
2019-01-16T20:27:54.810Z,14.43
2019-01-16T20:30:43.266Z,8.63
2019-01-16T20:33:28.859Z,9.37
2019-01-16T20:36:22.970Z,7.67
2019-01-16T20:39:09.737Z,8.97
2019-01-16T20:41:56.741Z,7.27
2019-01-16T20:44:50.049Z,5.53
2019-01-16T20:47:44.113Z,9.57
2019-01-16T20:50:43.433Z,10.63
2019-01-16T20:53:22.277Z,11.53
2019-01-16T20:56:14.573Z,12.50
2019-01-16T20:59:05.697Z,9.53
2019-01-16T21:01:46.534Z,7.30
2019-01-16T21:04:24.563Z,10.67
2019-01-16T21:07:07.816Z,14.70
2019-01-16T21:09:56.893Z,10.70
2019-01-16T21:12:43.438Z,17.93
2019-01-16T21:15:38.030Z,9.00
2019-01-16T21:18:24.988Z,8.17
2019-01-16T21:21:11.757Z,10.30
2019-01-16T21:23:59.888Z,16.00
2019-01-16T21:26:41.262Z,11.23
2019-01-16T21:29:29.644Z,11.00
2019-01-16T21:32:23.865Z,16.30
2019-01-16T21:35:14.950Z,9.93
2019-01-16T21:37:57.506Z,11.20
2019-01-16T21:40:38.234Z,21.53
2019-01-16T21:43:19.310Z,14.13
2019-01-16T21:46:06.064Z,13.30
2019-01-16T21:48:51.208Z,21.40
2019-01-16T21:51:51.720Z,9.10
2019-01-16T21:54:39.804Z,12.43
2019-01-16T21:57:27.882Z,10.80
2019-01-16T22:00:14.342Z,9.67
2019-01-16T22:02:59.570Z,10.10
2019-01-16T22:05:49.543Z,12.63
2019-01-16T22:08:37.908Z,18.37
2019-01-16T22:11:23.855Z,15.53
2019-01-16T22:14:08.003Z,9.47
2019-01-16T22:16:56.086Z,9.70
2019-01-16T22:19:42.418Z,12.00
2019-01-16T22:22:31.969Z,16.90
2019-01-16T22:25:32.356Z,10.57
2019-01-16T22:28:37.502Z,9.70
2019-01-16T22:31:22.720Z,11.50
2019-01-16T22:34:05.144Z,8.68
2019-01-16T22:36:56.410Z,13.65
2019-01-16T22:39:50.632Z,11.60
2019-01-16T22:42:37.132Z,12.47
2019-01-16T22:45:26.292Z,17.30
2019-01-16T22:48:13.466Z,14.95
2019-01-16T22:50:56.434Z,11.97
2019-01-16T22:53:36.409Z,9.55
2019-01-16T22:56:27.730Z,11.70
2019-01-16T22:59:20.189Z,9.50
2019-01-16T23:02:24.514Z,11.45
2019-01-16T23:05:07.937Z,15.53
2019-01-16T23:07:47.921Z,11.20
2019-01-16T23:10:33.152Z,12.40
2019-01-16T23:13:29.652Z,8.37
2019-01-16T23:16:32.686Z,13.10
2019-01-16T23:19:20.954Z,14.65
2019-01-16T23:22:24.911Z,10.50
2019-01-16T23:25:17.157Z,15.45
2019-01-16T23:28:10.918Z,18.20
2019-01-16T23:30:58.801Z,16.80
2019-01-16T23:33:50.094Z,15.58
2019-01-16T23:36:44.202Z,16.52
2019-01-16T23:39:24.663Z,8.80
2019-01-16T23:42:11.119Z,15.05
2019-01-16T23:45:08.329Z,10.75
2019-01-16T23:47:56.381Z,10.95
2019-01-16T23:50:54.997Z,10.58
2019-01-16T23:53:34.801Z,7.78
2019-01-16T23:56:25.849Z,9.55
2019-01-16T23:59:12.475Z,9.85
